sensor_id;sensor_type;location;lat;lon;timestamp;temperature;humidity
23116;DHT22;11727;52.134;5.052;2023-04-15T00:01:59;8.20;99.90
23116;DHT22;11727;52.134;5.052;2023-04-15T00:04:26;8.20;99.90
23116;DHT22;11727;52.134;5.052;2023-04-15T00:06:52;8.20;99.90
23116;DHT22;11727;52.134;5.052;2023-04-15T00:09:19;8.20;99.90
23116;DHT22;11727;52.134;5.052;2023-04-15T00:11:45;8.20;99.90
23116;DHT22;11727;52.134;5.052;2023-04-15T00:14:12;8.20;99.90
23116;DHT22;11727;52.134;5.052;2023-04-15T00:16:38;8.20;99.90
23116;DHT22;11727;52.134;5.052;2023-04-15T00:19:03;8.30;99.90
23116;DHT22;11727;52.134;5.052;2023-04-15T00:21:29;8.20;99.90
23116;DHT22;11727;52.134;5.052;2023-04-15T00:23:55;8.20;99.90
23116;DHT22;11727;52.134;5.052;2023-04-15T00:26:21;8.20;99.90
23116;DHT22;11727;52.134;5.052;2023-04-15T00:28:47;8.20;99.90
23116;DHT22;11727;52.134;5.052;2023-04-15T00:31:12;8.20;99.90
23116;DHT22;11727;52.134;5.052;2023-04-15T00:33:38;8.20;99.90
23116;DHT22;11727;52.134;5.052;2023-04-15T00:36:05;8.20;99.90
23116;DHT22;11727;52.134;5.052;2023-04-15T00:38:31;8.20;99.90
23116;DHT22;11727;52.134;5.052;2023-04-15T00:40:57;8.20;99.90
23116;DHT22;11727;52.134;5.052;2023-04-15T00:43:22;8.10;99.90
23116;DHT22;11727;52.134;5.052;2023-04-15T00:45:50;8.10;99.90
23116;DHT22;11727;52.134;5.052;2023-04-15T00:48:16;8.00;99.90
23116;DHT22;11727;52.134;5.052;2023-04-15T00:50:41;8.00;99.90
23116;DHT22;11727;52.134;5.052;2023-04-15T00:53:07;7.90;99.90
23116;DHT22;11727;52.134;5.052;2023-04-15T00:55:33;7.90;99.90
23116;DHT22;11727;52.134;5.052;2023-04-15T00:57:58;7.90;99.90
23116;DHT22;11727;52.134;5.052;2023-04-15T01:00:24;7.90;99.90
23116;DHT22;11727;52.134;5.052;2023-04-15T01:02:49;7.90;99.90
23116;DHT22;11727;52.134;5.052;2023-04-15T01:05:16;7.90;99.90
23116;DHT22;11727;52.134;5.052;2023-04-15T01:07:43;7.90;99.90
23116;DHT22;11727;52.134;5.052;2023-04-15T01:10:08;7.90;99.90
23116;DHT22;11727;52.134;5.052;2023-04-15T01:12:34;7.80;99.90
23116;DHT22;11727;52.134;5.052;2023-04-15T01:15:01;7.80;99.90
23116;DHT22;11727;52.134;5.052;2023-04-15T01:17:27;7.80;99.90
23116;DHT22;11727;52.134;5.052;2023-04-15T01:19:55;7.80;99.90
23116;DHT22;11727;52.134;5.052;2023-04-15T01:22:21;7.80;99.90
23116;DHT22;11727;52.134;5.052;2023-04-15T01:24:53;7.70;99.90
23116;DHT22;11727;52.134;5.052;2023-04-15T01:27:21;7.70;99.90
23116;DHT22;11727;52.134;5.052;2023-04-15T01:29:47;7.70;99.90
23116;DHT22;11727;52.134;5.052;2023-04-15T01:32:12;7.70;99.90
23116;DHT22;11727;52.134;5.052;2023-04-15T01:34:38;7.60;99.90
23116;DHT22;11727;52.134;5.052;2023-04-15T01:37:04;7.60;99.90
23116;DHT22;11727;52.134;5.052;2023-04-15T01:39:29;7.60;99.90
23116;DHT22;11727;52.134;5.052;2023-04-15T01:41:55;7.60;99.90
23116;DHT22;11727;52.134;5.052;2023-04-15T01:44:21;7.50;99.90
23116;DHT22;11727;52.134;5.052;2023-04-15T01:46:47;7.50;99.90
23116;DHT22;11727;52.134;5.052;2023-04-15T01:49:12;7.50;99.90
23116;DHT22;11727;52.134;5.052;2023-04-15T01:51:38;7.50;99.90
23116;DHT22;11727;52.134;5.052;2023-04-15T01:54:04;7.40;99.90
23116;DHT22;11727;52.134;5.052;2023-04-15T01:56:29;7.50;99.90
23116;DHT22;11727;52.134;5.052;2023-04-15T01:58:55;7.40;99.90
23116;DHT22;11727;52.134;5.052;2023-04-15T02:01:21;7.50;99.90
23116;DHT22;11727;52.134;5.052;2023-04-15T02:03:47;7.40;99.90
23116;DHT22;11727;52.134;5.052;2023-04-15T02:06:12;7.40;99.90
23116;DHT22;11727;52.134;5.052;2023-04-15T02:08:38;7.40;99.90
23116;DHT22;11727;52.134;5.052;2023-04-15T02:11:03;7.40;99.90
23116;DHT22;11727;52.134;5.052;2023-04-15T02:13:29;7.40;99.90
23116;DHT22;11727;52.134;5.052;2023-04-15T02:15:55;7.30;99.90
23116;DHT22;11727;52.134;5.052;2023-04-15T02:18:21;7.30;99.90
23116;DHT22;11727;52.134;5.052;2023-04-15T02:20:46;7.30;99.90
23116;DHT22;11727;52.134;5.052;2023-04-15T02:23:13;7.20;99.90
23116;DHT22;11727;52.134;5.052;2023-04-15T02:25:38;7.20;99.90
23116;DHT22;11727;52.134;5.052;2023-04-15T02:28:05;7.20;99.90
23116;DHT22;11727;52.134;5.052;2023-04-15T02:30:31;7.20;99.90
23116;DHT22;11727;52.134;5.052;2023-04-15T02:32:57;7.10;99.90
23116;DHT22;11727;52.134;5.052;2023-04-15T02:35:23;7.10;99.90
23116;DHT22;11727;52.134;5.052;2023-04-15T02:37:50;7.00;99.90
23116;DHT22;11727;52.134;5.052;2023-04-15T02:40:16;7.00;99.90
23116;DHT22;11727;52.134;5.052;2023-04-15T02:42:42;7.00;99.90
23116;DHT22;11727;52.134;5.052;2023-04-15T02:45:09;7.00;99.90
23116;DHT22;11727;52.134;5.052;2023-04-15T02:47:36;7.00;99.90
23116;DHT22;11727;52.134;5.052;2023-04-15T02:50:10;6.90;99.90
23116;DHT22;11727;52.134;5.052;2023-04-15T02:52:40;6.90;99.90
23116;DHT22;11727;52.134;5.052;2023-04-15T02:55:06;6.90;99.90
23116;DHT22;11727;52.134;5.052;2023-04-15T02:57:32;6.80;99.90
23116;DHT22;11727;52.134;5.052;2023-04-15T02:59:59;6.80;99.90
23116;DHT22;11727;52.134;5.052;2023-04-15T03:02:25;6.70;99.90
23116;DHT22;11727;52.134;5.052;2023-04-15T03:04:50;6.70;99.90
23116;DHT22;11727;52.134;5.052;2023-04-15T03:07:17;6.70;99.90
23116;DHT22;11727;52.134;5.052;2023-04-15T03:09:42;6.70;99.90
23116;DHT22;11727;52.134;5.052;2023-04-15T03:12:08;6.60;99.90
23116;DHT22;11727;52.134;5.052;2023-04-15T03:14:34;6.60;99.90
23116;DHT22;11727;52.134;5.052;2023-04-15T03:17:00;6.50;99.90
23116;DHT22;11727;52.134;5.052;2023-04-15T03:19:26;6.50;99.90
23116;DHT22;11727;52.134;5.052;2023-04-15T03:21:51;6.50;99.90
23116;DHT22;11727;52.134;5.052;2023-04-15T03:24:17;6.50;99.90
23116;DHT22;11727;52.134;5.052;2023-04-15T03:26:43;6.40;99.90
23116;DHT22;11727;52.134;5.052;2023-04-15T03:29:08;6.40;99.90
23116;DHT22;11727;52.134;5.052;2023-04-15T03:31:34;6.30;99.90
23116;DHT22;11727;52.134;5.052;2023-04-15T03:33:59;6.30;99.90
23116;DHT22;11727;52.134;5.052;2023-04-15T03:36:27;6.30;99.90
23116;DHT22;11727;52.134;5.052;2023-04-15T03:38:53;6.30;99.90
23116;DHT22;11727;52.134;5.052;2023-04-15T03:41:19;6.30;99.90
23116;DHT22;11727;52.134;5.052;2023-04-15T03:43:44;6.30;99.90
23116;DHT22;11727;52.134;5.052;2023-04-15T03:46:10;6.30;99.90
23116;DHT22;11727;52.134;5.052;2023-04-15T03:48:37;6.20;99.90
23116;DHT22;11727;52.134;5.052;2023-04-15T03:51:02;6.20;99.90
23116;DHT22;11727;52.134;5.052;2023-04-15T03:53:28;6.30;99.90
23116;DHT22;11727;52.134;5.052;2023-04-15T03:55:53;6.30;99.90
23116;DHT22;11727;52.134;5.052;2023-04-15T03:58:19;6.30;99.90
23116;DHT22;11727;52.134;5.052;2023-04-15T04:00:45;6.20;99.90
23116;DHT22;11727;52.134;5.052;2023-04-15T04:03:10;6.20;99.90
23116;DHT22;11727;52.134;5.052;2023-04-15T04:05:36;6.20;99.90
23116;DHT22;11727;52.134;5.052;2023-04-15T04:08:03;6.20;99.90
23116;DHT22;11727;52.134;5.052;2023-04-15T04:10:29;6.20;99.90
23116;DHT22;11727;52.134;5.052;2023-04-15T04:12:54;6.10;99.90
23116;DHT22;11727;52.134;5.052;2023-04-15T04:15:20;6.10;99.90
23116;DHT22;11727;52.134;5.052;2023-04-15T04:17:46;6.10;99.90
23116;DHT22;11727;52.134;5.052;2023-04-15T04:20:11;6.10;99.90
23116;DHT22;11727;52.134;5.052;2023-04-15T04:22:38;6.10;99.90
23116;DHT22;11727;52.134;5.052;2023-04-15T04:25:07;6.10;99.90
23116;DHT22;11727;52.134;5.052;2023-04-15T04:27:33;6.10;99.90
23116;DHT22;11727;52.134;5.052;2023-04-15T04:29:59;6.10;99.90
23116;DHT22;11727;52.134;5.052;2023-04-15T04:32:26;6.10;99.90
23116;DHT22;11727;52.134;5.052;2023-04-15T04:34:51;6.10;99.90
23116;DHT22;11727;52.134;5.052;2023-04-15T04:37:17;6.00;99.90
23116;DHT22;11727;52.134;5.052;2023-04-15T04:39:42;6.10;99.90
23116;DHT22;11727;52.134;5.052;2023-04-15T04:42:08;6.00;99.90
23116;DHT22;11727;52.134;5.052;2023-04-15T04:44:33;6.00;99.90
23116;DHT22;11727;52.134;5.052;2023-04-15T04:46:59;6.10;99.90
23116;DHT22;11727;52.134;5.052;2023-04-15T04:49:25;6.10;99.90
23116;DHT22;11727;52.134;5.052;2023-04-15T04:51:51;6.10;99.90
23116;DHT22;11727;52.134;5.052;2023-04-15T04:54:17;6.00;99.90
23116;DHT22;11727;52.134;5.052;2023-04-15T04:56:42;6.10;99.90
23116;DHT22;11727;52.134;5.052;2023-04-15T04:59:08;6.00;99.90
23116;DHT22;11727;52.134;5.052;2023-04-15T05:01:33;6.00;99.90
23116;DHT22;11727;52.134;5.052;2023-04-15T05:03:59;6.00;99.90
23116;DHT22;11727;52.134;5.052;2023-04-15T05:06:25;6.00;99.90
23116;DHT22;11727;52.134;5.052;2023-04-15T05:08:52;6.00;99.90
23116;DHT22;11727;52.134;5.052;2023-04-15T05:11:17;6.00;99.90
23116;DHT22;11727;52.134;5.052;2023-04-15T05:13:43;6.00;99.90
23116;DHT22;11727;52.134;5.052;2023-04-15T05:16:08;6.00;99.90
23116;DHT22;11727;52.134;5.052;2023-04-15T05:18:34;6.00;99.90
23116;DHT22;11727;52.134;5.052;2023-04-15T05:21:00;6.00;99.90
23116;DHT22;11727;52.134;5.052;2023-04-15T05:23:25;6.00;99.90
23116;DHT22;11727;52.134;5.052;2023-04-15T05:25:51;6.00;99.90
23116;DHT22;11727;52.134;5.052;2023-04-15T05:28:17;6.00;99.90
23116;DHT22;11727;52.134;5.052;2023-04-15T05:30:42;6.00;99.90
23116;DHT22;11727;52.134;5.052;2023-04-15T05:33:08;6.00;99.90
23116;DHT22;11727;52.134;5.052;2023-04-15T05:35:34;6.00;99.90
23116;DHT22;11727;52.134;5.052;2023-04-15T05:38:00;6.00;99.90
23116;DHT22;11727;52.134;5.052;2023-04-15T05:40:25;6.10;99.90
23116;DHT22;11727;52.134;5.052;2023-04-15T05:42:51;6.10;99.90
23116;DHT22;11727;52.134;5.052;2023-04-15T05:45:17;6.20;99.90
23116;DHT22;11727;52.134;5.052;2023-04-15T05:47:43;6.20;99.90
23116;DHT22;11727;52.134;5.052;2023-04-15T05:50:09;6.20;99.90
23116;DHT22;11727;52.134;5.052;2023-04-15T05:52:34;6.30;99.90
23116;DHT22;11727;52.134;5.052;2023-04-15T05:55:03;6.30;99.90
23116;DHT22;11727;52.134;5.052;2023-04-15T05:57:28;6.40;99.90
23116;DHT22;11727;52.134;5.052;2023-04-15T05:59:54;6.50;99.90
23116;DHT22;11727;52.134;5.052;2023-04-15T06:02:21;6.60;99.90
23116;DHT22;11727;52.134;5.052;2023-04-15T06:04:47;6.60;99.90
23116;DHT22;11727;52.134;5.052;2023-04-15T06:07:12;6.70;99.90
23116;DHT22;11727;52.134;5.052;2023-04-15T06:09:38;6.80;99.90
23116;DHT22;11727;52.134;5.052;2023-04-15T06:12:04;6.90;99.90
23116;DHT22;11727;52.134;5.052;2023-04-15T06:14:31;7.00;99.90
23116;DHT22;11727;52.134;5.052;2023-04-15T06:16:56;7.10;99.90
23116;DHT22;11727;52.134;5.052;2023-04-15T06:19:22;7.20;99.90
23116;DHT22;11727;52.134;5.052;2023-04-15T06:21:47;7.40;99.90
23116;DHT22;11727;52.134;5.052;2023-04-15T06:24:13;7.60;99.90
23116;DHT22;11727;52.134;5.052;2023-04-15T06:26:39;7.70;99.90
23116;DHT22;11727;52.134;5.052;2023-04-15T06:29:04;7.80;99.90
23116;DHT22;11727;52.134;5.052;2023-04-15T06:31:30;7.90;99.90
23116;DHT22;11727;52.134;5.052;2023-04-15T06:33:56;8.00;99.90
23116;DHT22;11727;52.134;5.052;2023-04-15T06:36:21;8.00;99.90
23116;DHT22;11727;52.134;5.052;2023-04-15T06:38:47;8.20;99.90
23116;DHT22;11727;52.134;5.052;2023-04-15T06:41:12;8.40;99.90
23116;DHT22;11727;52.134;5.052;2023-04-15T06:43:38;8.50;99.90
23116;DHT22;11727;52.134;5.052;2023-04-15T06:46:04;8.60;99.90
23116;DHT22;11727;52.134;5.052;2023-04-15T06:48:30;8.70;99.90
23116;DHT22;11727;52.134;5.052;2023-04-15T06:50:56;8.90;99.90
23116;DHT22;11727;52.134;5.052;2023-04-15T06:53:24;9.10;99.90
23116;DHT22;11727;52.134;5.052;2023-04-15T06:55:51;9.20;99.90
23116;DHT22;11727;52.134;5.052;2023-04-15T06:58:16;9.40;99.90
23116;DHT22;11727;52.134;5.052;2023-04-15T07:00:42;9.60;99.90
23116;DHT22;11727;52.134;5.052;2023-04-15T07:03:08;9.80;99.90
23116;DHT22;11727;52.134;5.052;2023-04-15T07:05:35;10.00;99.90
23116;DHT22;11727;52.134;5.052;2023-04-15T07:08:01;10.20;99.90
23116;DHT22;11727;52.134;5.052;2023-04-15T07:10:26;10.40;99.90
23116;DHT22;11727;52.134;5.052;2023-04-15T07:12:52;10.60;99.90
23116;DHT22;11727;52.134;5.052;2023-04-15T07:15:17;10.70;99.90
23116;DHT22;11727;52.134;5.052;2023-04-15T07:17:43;10.80;99.90
23116;DHT22;11727;52.134;5.052;2023-04-15T07:20:09;11.00;99.90
23116;DHT22;11727;52.134;5.052;2023-04-15T07:22:35;11.20;99.90
23116;DHT22;11727;52.134;5.052;2023-04-15T07:25:00;11.30;99.90
23116;DHT22;11727;52.134;5.052;2023-04-15T07:27:26;11.40;99.90
23116;DHT22;11727;52.134;5.052;2023-04-15T07:29:52;11.40;99.90
23116;DHT22;11727;52.134;5.052;2023-04-15T07:32:18;11.40;99.90
23116;DHT22;11727;52.134;5.052;2023-04-15T07:34:43;11.50;99.90
23116;DHT22;11727;52.134;5.052;2023-04-15T07:37:09;11.70;99.90
23116;DHT22;11727;52.134;5.052;2023-04-15T07:39:35;11.80;99.90
23116;DHT22;11727;52.134;5.052;2023-04-15T07:42:01;11.90;99.90
23116;DHT22;11727;52.134;5.052;2023-04-15T07:44:28;11.90;99.90
23116;DHT22;11727;52.134;5.052;2023-04-15T07:46:55;12.00;99.90
23116;DHT22;11727;52.134;5.052;2023-04-15T07:49:20;12.10;99.90
23116;DHT22;11727;52.134;5.052;2023-04-15T07:51:46;12.30;99.90
23116;DHT22;11727;52.134;5.052;2023-04-15T07:54:13;12.50;99.90
23116;DHT22;11727;52.134;5.052;2023-04-15T07:56:39;12.70;99.90
23116;DHT22;11727;52.134;5.052;2023-04-15T07:59:05;12.90;99.90
23116;DHT22;11727;52.134;5.052;2023-04-15T08:01:31;12.90;99.90
23116;DHT22;11727;52.134;5.052;2023-04-15T08:03:58;12.90;99.90
23116;DHT22;11727;52.134;5.052;2023-04-15T08:06:23;12.80;99.90
23116;DHT22;11727;52.134;5.052;2023-04-15T08:08:49;12.90;99.90
23116;DHT22;11727;52.134;5.052;2023-04-15T08:11:15;13.20;99.90
23116;DHT22;11727;52.134;5.052;2023-04-15T08:13:41;13.20;99.90
23116;DHT22;11727;52.134;5.052;2023-04-15T08:18:48;13.30;99.90
23116;DHT22;11727;52.134;5.052;2023-04-15T08:21:15;13.40;99.90
23116;DHT22;11727;52.134;5.052;2023-04-15T08:23:40;13.40;99.90
23116;DHT22;11727;52.134;5.052;2023-04-15T08:26:07;13.40;99.90
23116;DHT22;11727;52.134;5.052;2023-04-15T08:28:33;13.40;99.90
23116;DHT22;11727;52.134;5.052;2023-04-15T08:30:59;13.60;99.90
23116;DHT22;11727;52.134;5.052;2023-04-15T08:33:24;13.80;99.90
23116;DHT22;11727;52.134;5.052;2023-04-15T08:35:50;13.70;99.90
23116;DHT22;11727;52.134;5.052;2023-04-15T08:38:16;13.80;99.90
23116;DHT22;11727;52.134;5.052;2023-04-15T08:40:43;13.60;99.90
23116;DHT22;11727;52.134;5.052;2023-04-15T08:43:12;13.60;99.90
23116;DHT22;11727;52.134;5.052;2023-04-15T08:45:39;13.60;99.90
23116;DHT22;11727;52.134;5.052;2023-04-15T08:48:06;13.80;99.90
23116;DHT22;11727;52.134;5.052;2023-04-15T08:50:32;13.80;99.90
23116;DHT22;11727;52.134;5.052;2023-04-15T08:52:58;13.80;99.90
23116;DHT22;11727;52.134;5.052;2023-04-15T08:55:32;13.90;99.90
23116;DHT22;11727;52.134;5.052;2023-04-15T08:58:01;14.00;99.90
23116;DHT22;11727;52.134;5.052;2023-04-15T09:00:28;14.30;99.90
23116;DHT22;11727;52.134;5.052;2023-04-15T09:02:55;14.60;99.90
23116;DHT22;11727;52.134;5.052;2023-04-15T09:05:21;14.80;99.90
23116;DHT22;11727;52.134;5.052;2023-04-15T09:07:49;14.90;99.90
23116;DHT22;11727;52.134;5.052;2023-04-15T09:10:14;14.80;99.90
23116;DHT22;11727;52.134;5.052;2023-04-15T09:12:40;14.70;99.90
23116;DHT22;11727;52.134;5.052;2023-04-15T09:15:07;14.70;99.90
23116;DHT22;11727;52.134;5.052;2023-04-15T09:17:41;14.80;99.90
23116;DHT22;11727;52.134;5.052;2023-04-15T09:20:08;14.80;99.90
23116;DHT22;11727;52.134;5.052;2023-04-15T09:22:35;15.00;99.90
23116;DHT22;11727;52.134;5.052;2023-04-15T09:25:02;14.80;99.90
23116;DHT22;11727;52.134;5.052;2023-04-15T09:27:28;15.00;99.90
23116;DHT22;11727;52.134;5.052;2023-04-15T09:29:53;15.20;99.90
23116;DHT22;11727;52.134;5.052;2023-04-15T09:32:19;15.30;99.90
23116;DHT22;11727;52.134;5.052;2023-04-15T09:34:53;15.20;99.90
23116;DHT22;11727;52.134;5.052;2023-04-15T09:37:34;15.30;99.90
23116;DHT22;11727;52.134;5.052;2023-04-15T09:39:59;15.20;99.90
23116;DHT22;11727;52.134;5.052;2023-04-15T09:42:25;15.30;99.90
23116;DHT22;11727;52.134;5.052;2023-04-15T09:44:51;15.30;99.90
23116;DHT22;11727;52.134;5.052;2023-04-15T09:47:26;15.40;99.90
23116;DHT22;11727;52.134;5.052;2023-04-15T09:49:56;15.20;99.90
23116;DHT22;11727;52.134;5.052;2023-04-15T09:52:22;15.30;99.90
23116;DHT22;11727;52.134;5.052;2023-04-15T09:54:48;15.50;99.90
23116;DHT22;11727;52.134;5.052;2023-04-15T09:57:17;15.40;99.90
23116;DHT22;11727;52.134;5.052;2023-04-15T09:59:42;15.50;99.90
23116;DHT22;11727;52.134;5.052;2023-04-15T10:02:08;15.50;99.90
23116;DHT22;11727;52.134;5.052;2023-04-15T10:04:37;15.10;99.90
23116;DHT22;11727;52.134;5.052;2023-04-15T10:07:04;15.00;99.90
23116;DHT22;11727;52.134;5.052;2023-04-15T10:09:31;14.90;99.90
23116;DHT22;11727;52.134;5.052;2023-04-15T10:11:58;14.60;99.90
23116;DHT22;11727;52.134;5.052;2023-04-15T10:14:27;14.60;99.90
23116;DHT22;11727;52.134;5.052;2023-04-15T10:16:55;14.80;99.90
23116;DHT22;11727;52.134;5.052;2023-04-15T10:19:25;14.60;99.90
23116;DHT22;11727;52.134;5.052;2023-04-15T10:21:52;14.70;99.90
23116;DHT22;11727;52.134;5.052;2023-04-15T10:24:19;14.80;99.90
23116;DHT22;11727;52.134;5.052;2023-04-15T10:26:45;14.60;99.90
23116;DHT22;11727;52.134;5.052;2023-04-15T10:29:11;14.50;99.90
23116;DHT22;11727;52.134;5.052;2023-04-15T10:31:37;14.20;99.90
23116;DHT22;11727;52.134;5.052;2023-04-15T10:34:05;14.20;99.90
23116;DHT22;11727;52.134;5.052;2023-04-15T10:36:32;14.10;99.90
23116;DHT22;11727;52.134;5.052;2023-04-15T10:38:57;14.30;99.90
23116;DHT22;11727;52.134;5.052;2023-04-15T10:41:25;14.40;99.90
23116;DHT22;11727;52.134;5.052;2023-04-15T10:43:59;14.70;99.90
23116;DHT22;11727;52.134;5.052;2023-04-15T10:46:42;14.80;99.90
23116;DHT22;11727;52.134;5.052;2023-04-15T10:49:11;14.80;99.90
23116;DHT22;11727;52.134;5.052;2023-04-15T10:51:50;14.80;99.90
23116;DHT22;11727;52.134;5.052;2023-04-15T10:54:31;14.80;99.90
23116;DHT22;11727;52.134;5.052;2023-04-15T10:59:30;14.80;99.90
23116;DHT22;11727;52.134;5.052;2023-04-15T11:02:05;14.80;99.90
23116;DHT22;11727;52.134;5.052;2023-04-15T11:04:56;15.00;99.90
23116;DHT22;11727;52.134;5.052;2023-04-15T11:12:39;15.00;99.90
23116;DHT22;11727;52.134;5.052;2023-04-15T11:20:46;15.20;99.90
23116;DHT22;11727;52.134;5.052;2023-04-15T11:23:19;15.30;99.90
23116;DHT22;11727;52.134;5.052;2023-04-15T11:25:45;15.10;99.90
23116;DHT22;11727;52.134;5.052;2023-04-15T11:28:11;15.00;99.90
23116;DHT22;11727;52.134;5.052;2023-04-15T11:30:38;15.00;99.90
23116;DHT22;11727;52.134;5.052;2023-04-15T11:33:06;14.80;99.90
23116;DHT22;11727;52.134;5.052;2023-04-15T11:35:33;14.60;99.90
23116;DHT22;11727;52.134;5.052;2023-04-15T11:38:03;14.40;99.90
23116;DHT22;11727;52.134;5.052;2023-04-15T11:40:30;14.60;99.90
23116;DHT22;11727;52.134;5.052;2023-04-15T11:45:44;15.30;99.90
23116;DHT22;11727;52.134;5.052;2023-04-15T11:48:12;15.20;99.90
23116;DHT22;11727;52.134;5.052;2023-04-15T11:50:39;14.70;99.90
23116;DHT22;11727;52.134;5.052;2023-04-15T11:53:07;14.50;99.90
23116;DHT22;11727;52.134;5.052;2023-04-15T11:55:47;14.60;99.90
23116;DHT22;11727;52.134;5.052;2023-04-15T11:58:20;14.60;99.90
23116;DHT22;11727;52.134;5.052;2023-04-15T12:00:56;14.70;99.90
23116;DHT22;11727;52.134;5.052;2023-04-15T12:03:37;14.90;99.90
23116;DHT22;11727;52.134;5.052;2023-04-15T12:13:56;15.10;99.90
23116;DHT22;11727;52.134;5.052;2023-04-15T12:16:23;14.90;99.90
23116;DHT22;11727;52.134;5.052;2023-04-15T12:18:53;15.10;99.90
23116;DHT22;11727;52.134;5.052;2023-04-15T12:21:27;15.30;99.90
23116;DHT22;11727;52.134;5.052;2023-04-15T12:23:55;15.50;99.90
23116;DHT22;11727;52.134;5.052;2023-04-15T12:26:29;15.50;99.90
23116;DHT22;11727;52.134;5.052;2023-04-15T12:29:01;15.20;99.90
23116;DHT22;11727;52.134;5.052;2023-04-15T12:31:26;14.70;99.90
23116;DHT22;11727;52.134;5.052;2023-04-15T12:33:55;14.70;99.90
23116;DHT22;11727;52.134;5.052;2023-04-15T12:36:21;14.60;99.90
23116;DHT22;11727;52.134;5.052;2023-04-15T12:38:47;14.80;99.90
23116;DHT22;11727;52.134;5.052;2023-04-15T12:41:12;15.20;99.90
23116;DHT22;11727;52.134;5.052;2023-04-15T12:43:38;15.40;99.90
23116;DHT22;11727;52.134;5.052;2023-04-15T12:46:04;15.30;99.90
23116;DHT22;11727;52.134;5.052;2023-04-15T12:48:29;15.50;99.90
23116;DHT22;11727;52.134;5.052;2023-04-15T12:50:55;15.80;99.90
23116;DHT22;11727;52.134;5.052;2023-04-15T12:53:21;15.90;99.90
23116;DHT22;11727;52.134;5.052;2023-04-15T12:55:46;15.90;99.90
23116;DHT22;11727;52.134;5.052;2023-04-15T12:58:12;15.80;99.90
23116;DHT22;11727;52.134;5.052;2023-04-15T13:00:38;15.70;99.90
23116;DHT22;11727;52.134;5.052;2023-04-15T13:03:04;15.50;99.90
23116;DHT22;11727;52.134;5.052;2023-04-15T13:05:29;15.60;99.90
23116;DHT22;11727;52.134;5.052;2023-04-15T13:07:55;15.80;99.90
23116;DHT22;11727;52.134;5.052;2023-04-15T13:10:21;15.70;99.90
23116;DHT22;11727;52.134;5.052;2023-04-15T13:12:48;15.80;99.90
23116;DHT22;11727;52.134;5.052;2023-04-15T13:15:14;15.70;99.90
23116;DHT22;11727;52.134;5.052;2023-04-15T13:17:43;15.50;99.90
23116;DHT22;11727;52.134;5.052;2023-04-15T13:20:09;15.50;99.90
23116;DHT22;11727;52.134;5.052;2023-04-15T13:22:35;15.50;99.90
23116;DHT22;11727;52.134;5.052;2023-04-15T13:25:00;15.20;99.90
23116;DHT22;11727;52.134;5.052;2023-04-15T13:27:26;14.90;99.90
23116;DHT22;11727;52.134;5.052;2023-04-15T13:29:52;14.60;99.90
23116;DHT22;11727;52.134;5.052;2023-04-15T13:32:18;14.50;99.90
23116;DHT22;11727;52.134;5.052;2023-04-15T13:34:43;14.60;99.90
23116;DHT22;11727;52.134;5.052;2023-04-15T13:37:09;14.90;99.90
23116;DHT22;11727;52.134;5.052;2023-04-15T13:39:35;15.10;99.90
23116;DHT22;11727;52.134;5.052;2023-04-15T13:42:01;15.00;99.90
23116;DHT22;11727;52.134;5.052;2023-04-15T13:44:27;15.20;99.90
23116;DHT22;11727;52.134;5.052;2023-04-15T13:46:52;15.30;99.90
23116;DHT22;11727;52.134;5.052;2023-04-15T13:49:18;15.20;99.90
23116;DHT22;11727;52.134;5.052;2023-04-15T13:51:44;15.20;99.90
23116;DHT22;11727;52.134;5.052;2023-04-15T13:54:09;14.90;99.90
23116;DHT22;11727;52.134;5.052;2023-04-15T13:56:35;14.50;99.90
23116;DHT22;11727;52.134;5.052;2023-04-15T13:59:01;14.30;99.90
23116;DHT22;11727;52.134;5.052;2023-04-15T14:01:28;14.10;99.90
23116;DHT22;11727;52.134;5.052;2023-04-15T14:03:54;14.40;99.90
23116;DHT22;11727;52.134;5.052;2023-04-15T14:06:19;14.60;99.90
23116;DHT22;11727;52.134;5.052;2023-04-15T14:08:45;14.70;99.90
23116;DHT22;11727;52.134;5.052;2023-04-15T14:11:11;14.90;99.90
23116;DHT22;11727;52.134;5.052;2023-04-15T14:13:37;14.70;99.90
23116;DHT22;11727;52.134;5.052;2023-04-15T14:16:02;14.50;99.90
23116;DHT22;11727;52.134;5.052;2023-04-15T14:18:28;14.40;99.90
23116;DHT22;11727;52.134;5.052;2023-04-15T14:20:55;14.30;99.90
23116;DHT22;11727;52.134;5.052;2023-04-15T14:23:21;14.00;99.90
23116;DHT22;11727;52.134;5.052;2023-04-15T14:25:47;14.20;99.90
23116;DHT22;11727;52.134;5.052;2023-04-15T14:28:12;14.10;99.90
23116;DHT22;11727;52.134;5.052;2023-04-15T14:30:38;14.00;99.90
23116;DHT22;11727;52.134;5.052;2023-04-15T14:33:04;14.00;99.90
23116;DHT22;11727;52.134;5.052;2023-04-15T14:35:30;13.90;99.90
23116;DHT22;11727;52.134;5.052;2023-04-15T14:37:55;13.70;99.90
23116;DHT22;11727;52.134;5.052;2023-04-15T14:40:21;13.50;99.90
23116;DHT22;11727;52.134;5.052;2023-04-15T14:42:47;13.40;99.90
23116;DHT22;11727;52.134;5.052;2023-04-15T14:45:13;13.30;99.90
23116;DHT22;11727;52.134;5.052;2023-04-15T14:47:38;13.00;99.90
23116;DHT22;11727;52.134;5.052;2023-04-15T14:50:04;13.00;99.90
23116;DHT22;11727;52.134;5.052;2023-04-15T14:52:31;12.90;99.90
23116;DHT22;11727;52.134;5.052;2023-04-15T14:55:06;12.80;99.90
23116;DHT22;11727;52.134;5.052;2023-04-15T14:57:32;13.00;99.90
23116;DHT22;11727;52.134;5.052;2023-04-15T14:59:57;12.90;99.90
23116;DHT22;11727;52.134;5.052;2023-04-15T15:02:23;13.10;99.90
23116;DHT22;11727;52.134;5.052;2023-04-15T15:04:49;13.30;99.90
23116;DHT22;11727;52.134;5.052;2023-04-15T15:07:15;13.30;99.90
23116;DHT22;11727;52.134;5.052;2023-04-15T15:09:40;13.30;99.90
23116;DHT22;11727;52.134;5.052;2023-04-15T15:12:06;13.20;99.90
23116;DHT22;11727;52.134;5.052;2023-04-15T15:14:32;12.90;99.90
23116;DHT22;11727;52.134;5.052;2023-04-15T15:16:58;12.80;99.90
23116;DHT22;11727;52.134;5.052;2023-04-15T15:19:23;12.70;99.90
23116;DHT22;11727;52.134;5.052;2023-04-15T15:21:49;12.70;99.90
23116;DHT22;11727;52.134;5.052;2023-04-15T15:24:16;12.60;99.90
23116;DHT22;11727;52.134;5.052;2023-04-15T15:26:42;12.70;99.90
23116;DHT22;11727;52.134;5.052;2023-04-15T15:29:07;12.80;99.90
23116;DHT22;11727;52.134;5.052;2023-04-15T15:31:34;12.80;99.90
23116;DHT22;11727;52.134;5.052;2023-04-15T15:34:00;12.90;99.90
23116;DHT22;11727;52.134;5.052;2023-04-15T15:36:25;12.80;99.90
23116;DHT22;11727;52.134;5.052;2023-04-15T15:38:54;12.50;99.90
23116;DHT22;11727;52.134;5.052;2023-04-15T15:41:19;12.40;99.90
23116;DHT22;11727;52.134;5.052;2023-04-15T15:43:45;12.40;99.90
23116;DHT22;11727;52.134;5.052;2023-04-15T15:46:11;12.40;99.90
23116;DHT22;11727;52.134;5.052;2023-04-15T15:48:36;12.00;99.90
23116;DHT22;11727;52.134;5.052;2023-04-15T15:51:02;11.90;99.90
23116;DHT22;11727;52.134;5.052;2023-04-15T15:53:28;11.70;99.90
23116;DHT22;11727;52.134;5.052;2023-04-15T15:55:54;11.60;99.90
23116;DHT22;11727;52.134;5.052;2023-04-15T15:58:20;11.30;99.90
23116;DHT22;11727;52.134;5.052;2023-04-15T16:00:46;11.30;99.90